sensor_id;sensor_type;location;lat;lon;timestamp;temperature;humidity
38241;DHT22;24037;49.536;8.500;2023-07-31T00:00:36;19.40;1.00
38241;DHT22;24037;49.536;8.500;2023-07-31T00:03:02;19.40;1.00
38241;DHT22;24037;49.536;8.500;2023-07-31T00:05:28;19.50;1.00
38241;DHT22;24037;49.536;8.500;2023-07-31T00:07:54;19.60;1.00
38241;DHT22;24037;49.536;8.500;2023-07-31T00:10:21;19.50;1.00
38241;DHT22;24037;49.536;8.500;2023-07-31T00:12:47;19.50;1.00
38241;DHT22;24037;49.536;8.500;2023-07-31T00:15:14;19.50;1.00
38241;DHT22;24037;49.536;8.500;2023-07-31T00:17:40;19.50;1.00
38241;DHT22;24037;49.536;8.500;2023-07-31T00:20:07;19.40;1.00
38241;DHT22;24037;49.536;8.500;2023-07-31T00:22:33;19.50;1.00
38241;DHT22;24037;49.536;8.500;2023-07-31T00:25:00;19.50;1.00
38241;DHT22;24037;49.536;8.500;2023-07-31T00:27:26;19.40;1.00
38241;DHT22;24037;49.536;8.500;2023-07-31T00:29:52;19.40;1.00
38241;DHT22;24037;49.536;8.500;2023-07-31T00:32:18;19.40;1.00
38241;DHT22;24037;49.536;8.500;2023-07-31T00:34:45;19.40;1.00
38241;DHT22;24037;49.536;8.500;2023-07-31T00:37:11;19.30;1.00
38241;DHT22;24037;49.536;8.500;2023-07-31T00:39:37;19.20;1.00
38241;DHT22;24037;49.536;8.500;2023-07-31T00:42:03;19.20;1.00
38241;DHT22;24037;49.536;8.500;2023-07-31T00:44:29;19.10;1.00
38241;DHT22;24037;49.536;8.500;2023-07-31T00:46:56;19.00;1.00
38241;DHT22;24037;49.536;8.500;2023-07-31T00:49:23;18.90;1.00
38241;DHT22;24037;49.536;8.500;2023-07-31T00:51:49;18.80;1.00
38241;DHT22;24037;49.536;8.500;2023-07-31T00:54:15;18.80;1.00
38241;DHT22;24037;49.536;8.500;2023-07-31T00:56:45;18.70;1.00
38241;DHT22;24037;49.536;8.500;2023-07-31T00:59:11;18.60;1.00
38241;DHT22;24037;49.536;8.500;2023-07-31T01:01:38;18.60;1.00
38241;DHT22;24037;49.536;8.500;2023-07-31T01:04:04;18.50;1.00
38241;DHT22;24037;49.536;8.500;2023-07-31T01:06:31;18.40;1.00
38241;DHT22;24037;49.536;8.500;2023-07-31T01:09:08;18.50;1.00
38241;DHT22;24037;49.536;8.500;2023-07-31T01:11:50;18.40;1.00
38241;DHT22;24037;49.536;8.500;2023-07-31T01:14:18;18.40;1.00
38241;DHT22;24037;49.536;8.500;2023-07-31T01:16:44;18.40;1.00
38241;DHT22;24037;49.536;8.500;2023-07-31T01:19:11;18.40;1.00
38241;DHT22;24037;49.536;8.500;2023-07-31T01:27:47;18.20;1.00
38241;DHT22;24037;49.536;8.500;2023-07-31T01:30:17;18.30;1.00
38241;DHT22;24037;49.536;8.500;2023-07-31T01:32:47;18.30;1.00
38241;DHT22;24037;49.536;8.500;2023-07-31T01:35:13;18.20;1.00
38241;DHT22;24037;49.536;8.500;2023-07-31T01:37:40;18.20;1.00
38241;DHT22;24037;49.536;8.500;2023-07-31T01:40:06;18.20;1.00
38241;DHT22;24037;49.536;8.500;2023-07-31T01:42:33;18.20;1.00
38241;DHT22;24037;49.536;8.500;2023-07-31T01:44:59;18.20;5.80
38241;DHT22;24037;49.536;8.500;2023-07-31T01:47:25;18.20;3.60
38241;DHT22;24037;49.536;8.500;2023-07-31T01:49:51;18.10;6.40
38241;DHT22;24037;49.536;8.500;2023-07-31T01:52:17;18.10;4.90
38241;DHT22;24037;49.536;8.500;2023-07-31T01:54:43;18.10;15.40
38241;DHT22;24037;49.536;8.500;2023-07-31T01:57:10;18.10;17.30
38241;DHT22;24037;49.536;8.500;2023-07-31T01:59:36;18.10;19.50
38241;DHT22;24037;49.536;8.500;2023-07-31T02:02:02;18.10;17.30
38241;DHT22;24037;49.536;8.500;2023-07-31T02:04:30;18.10;19.90
38241;DHT22;24037;49.536;8.500;2023-07-31T02:06:56;18.10;16.20
38241;DHT22;24037;49.536;8.500;2023-07-31T02:09:22;18.00;26.20
38241;DHT22;24037;49.536;8.500;2023-07-31T02:11:48;18.00;20.30
38241;DHT22;24037;49.536;8.500;2023-07-31T02:14:14;18.00;22.30
38241;DHT22;24037;49.536;8.500;2023-07-31T02:16:41;18.00;29.80
38241;DHT22;24037;49.536;8.500;2023-07-31T02:19:08;18.00;24.10
38241;DHT22;24037;49.536;8.500;2023-07-31T02:21:34;18.00;27.50
38241;DHT22;24037;49.536;8.500;2023-07-31T02:24:00;18.00;32.00
38241;DHT22;24037;49.536;8.500;2023-07-31T02:26:27;17.90;27.80
38241;DHT22;24037;49.536;8.500;2023-07-31T02:28:53;18.00;35.70
38241;DHT22;24037;49.536;8.500;2023-07-31T02:31:19;17.90;34.30
38241;DHT22;24037;49.536;8.500;2023-07-31T02:33:45;17.90;41.40
38241;DHT22;24037;49.536;8.500;2023-07-31T02:36:11;17.90;57.60
38241;DHT22;24037;49.536;8.500;2023-07-31T02:38:38;17.90;48.40
38241;DHT22;24037;49.536;8.500;2023-07-31T02:41:06;17.90;41.60
38241;DHT22;24037;49.536;8.500;2023-07-31T02:43:32;17.80;44.80
38241;DHT22;24037;49.536;8.500;2023-07-31T02:45:59;17.80;37.50
38241;DHT22;24037;49.536;8.500;2023-07-31T02:48:26;17.80;44.50
38241;DHT22;24037;49.536;8.500;2023-07-31T02:50:53;17.80;49.80
38241;DHT22;24037;49.536;8.500;2023-07-31T02:53:19;17.80;45.80
38241;DHT22;24037;49.536;8.500;2023-07-31T02:55:46;17.80;53.90
38241;DHT22;24037;49.536;8.500;2023-07-31T02:58:12;17.70;45.80
38241;DHT22;24037;49.536;8.500;2023-07-31T03:00:43;17.80;38.80
38241;DHT22;24037;49.536;8.500;2023-07-31T03:03:09;17.70;47.30
38241;DHT22;24037;49.536;8.500;2023-07-31T03:05:36;17.70;47.60
38241;DHT22;24037;49.536;8.500;2023-07-31T03:08:02;17.60;51.50
38241;DHT22;24037;49.536;8.500;2023-07-31T03:10:28;17.70;46.80
38241;DHT22;24037;49.536;8.500;2023-07-31T03:12:54;17.70;54.00
38241;DHT22;24037;49.536;8.500;2023-07-31T03:15:20;17.60;50.00
38241;DHT22;24037;49.536;8.500;2023-07-31T03:17:47;17.70;43.50
38241;DHT22;24037;49.536;8.500;2023-07-31T03:20:13;17.70;41.40
38241;DHT22;24037;49.536;8.500;2023-07-31T03:22:39;17.70;47.20
38241;DHT22;24037;49.536;8.500;2023-07-31T03:25:05;17.70;42.90
38241;DHT22;24037;49.536;8.500;2023-07-31T03:27:32;17.70;45.90
38241;DHT22;24037;49.536;8.500;2023-07-31T03:29:59;17.70;38.70
38241;DHT22;24037;49.536;8.500;2023-07-31T03:32:26;17.70;46.60
38241;DHT22;24037;49.536;8.500;2023-07-31T03:34:53;17.70;42.40
38241;DHT22;24037;49.536;8.500;2023-07-31T03:37:19;17.70;46.70
38241;DHT22;24037;49.536;8.500;2023-07-31T03:39:46;17.70;36.70
38241;DHT22;24037;49.536;8.500;2023-07-31T03:42:12;17.60;49.10
38241;DHT22;24037;49.536;8.500;2023-07-31T03:44:38;17.70;44.20
38241;DHT22;24037;49.536;8.500;2023-07-31T03:47:05;17.60;46.40
38241;DHT22;24037;49.536;8.500;2023-07-31T03:49:32;17.60;46.50
38241;DHT22;24037;49.536;8.500;2023-07-31T03:51:58;17.60;48.70
38241;DHT22;24037;49.536;8.500;2023-07-31T03:54:24;17.50;60.40
38241;DHT22;24037;49.536;8.500;2023-07-31T03:56:50;17.50;65.40
38241;DHT22;24037;49.536;8.500;2023-07-31T03:59:16;17.50;59.50
38241;DHT22;24037;49.536;8.500;2023-07-31T04:01:42;17.50;58.90
38241;DHT22;24037;49.536;8.500;2023-07-31T04:04:08;17.50;70.10
38241;DHT22;24037;49.536;8.500;2023-07-31T04:06:34;17.50;66.40
38241;DHT22;24037;49.536;8.500;2023-07-31T04:09:02;17.50;83.50
38241;DHT22;24037;49.536;8.500;2023-07-31T04:11:28;17.50;72.30
38241;DHT22;24037;49.536;8.500;2023-07-31T04:13:54;17.50;69.70
38241;DHT22;24037;49.536;8.500;2023-07-31T04:16:20;17.40;66.00
38241;DHT22;24037;49.536;8.500;2023-07-31T04:18:46;17.40;68.60
38241;DHT22;24037;49.536;8.500;2023-07-31T04:21:12;17.50;61.30
38241;DHT22;24037;49.536;8.500;2023-07-31T04:23:39;17.50;79.30
38241;DHT22;24037;49.536;8.500;2023-07-31T04:26:05;17.50;67.40
38241;DHT22;24037;49.536;8.500;2023-07-31T04:28:31;17.50;54.30
38241;DHT22;24037;49.536;8.500;2023-07-31T04:31:00;17.50;60.40
38241;DHT22;24037;49.536;8.500;2023-07-31T04:33:26;17.50;64.60
38241;DHT22;24037;49.536;8.500;2023-07-31T04:35:53;17.50;52.90
38241;DHT22;24037;49.536;8.500;2023-07-31T04:38:20;17.50;58.40
38241;DHT22;24037;49.536;8.500;2023-07-31T04:40:47;17.60;58.20
38241;DHT22;24037;49.536;8.500;2023-07-31T04:43:13;17.60;52.60
38241;DHT22;24037;49.536;8.500;2023-07-31T04:45:41;17.60;56.70
38241;DHT22;24037;49.536;8.500;2023-07-31T04:48:08;17.70;54.90
38241;DHT22;24037;49.536;8.500;2023-07-31T04:50:34;17.70;46.00
38241;DHT22;24037;49.536;8.500;2023-07-31T04:53:00;17.70;50.10
38241;DHT22;24037;49.536;8.500;2023-07-31T04:55:26;17.70;43.30
38241;DHT22;24037;49.536;8.500;2023-07-31T04:57:52;17.80;40.30
38241;DHT22;24037;49.536;8.500;2023-07-31T05:00:19;17.90;36.90
38241;DHT22;24037;49.536;8.500;2023-07-31T05:02:45;17.90;47.80
38241;DHT22;24037;49.536;8.500;2023-07-31T05:05:11;17.90;45.60
38241;DHT22;24037;49.536;8.500;2023-07-31T05:07:37;17.90;29.80
38241;DHT22;24037;49.536;8.500;2023-07-31T05:10:03;17.90;38.00
38241;DHT22;24037;49.536;8.500;2023-07-31T05:12:29;18.00;32.90
38241;DHT22;24037;49.536;8.500;2023-07-31T05:14:56;18.00;26.50
38241;DHT22;24037;49.536;8.500;2023-07-31T05:17:22;18.00;35.20
38241;DHT22;24037;49.536;8.500;2023-07-31T05:19:48;18.00;30.60
38241;DHT22;24037;49.536;8.500;2023-07-31T05:22:15;18.00;32.60
38241;DHT22;24037;49.536;8.500;2023-07-31T05:24:41;18.00;30.10
38241;DHT22;24037;49.536;8.500;2023-07-31T05:27:07;18.00;35.00
38241;DHT22;24037;49.536;8.500;2023-07-31T05:29:33;17.90;30.10
38241;DHT22;24037;49.536;8.500;2023-07-31T05:31:59;18.00;26.80
38241;DHT22;24037;49.536;8.500;2023-07-31T05:34:25;18.00;41.00
38241;DHT22;24037;49.536;8.500;2023-07-31T05:36:51;18.00;30.60
38241;DHT22;24037;49.536;8.500;2023-07-31T05:39:18;18.00;36.30
38241;DHT22;24037;49.536;8.500;2023-07-31T05:41:45;18.10;32.90
38241;DHT22;24037;49.536;8.500;2023-07-31T05:44:11;18.10;43.60
38241;DHT22;24037;49.536;8.500;2023-07-31T05:46:37;18.20;32.10
38241;DHT22;24037;49.536;8.500;2023-07-31T05:49:04;18.20;21.70
38241;DHT22;24037;49.536;8.500;2023-07-31T05:51:30;18.20;22.30
38241;DHT22;24037;49.536;8.500;2023-07-31T05:53:56;18.20;18.80
38241;DHT22;24037;49.536;8.500;2023-07-31T05:56:22;18.20;15.60
38241;DHT22;24037;49.536;8.500;2023-07-31T05:58:48;18.20;20.50
38241;DHT22;24037;49.536;8.500;2023-07-31T06:01:17;18.40;19.10
38241;DHT22;24037;49.536;8.500;2023-07-31T06:03:43;18.50;10.10
38241;DHT22;24037;49.536;8.500;2023-07-31T06:06:10;18.50;13.10
38241;DHT22;24037;49.536;8.500;2023-07-31T06:08:37;18.50;5.30
38241;DHT22;24037;49.536;8.500;2023-07-31T06:11:03;18.40;11.90
38241;DHT22;24037;49.536;8.500;2023-07-31T06:13:29;18.40;8.30
38241;DHT22;24037;49.536;8.500;2023-07-31T06:15:55;18.50;9.60
38241;DHT22;24037;49.536;8.500;2023-07-31T06:18:21;18.50;5.20
38241;DHT22;24037;49.536;8.500;2023-07-31T06:20:47;18.60;1.90
38241;DHT22;24037;49.536;8.500;2023-07-31T06:23:19;18.60;1.00
38241;DHT22;24037;49.536;8.500;2023-07-31T06:25:46;18.60;4.50
38241;DHT22;24037;49.536;8.500;2023-07-31T06:28:12;18.80;1.00
38241;DHT22;24037;49.536;8.500;2023-07-31T06:30:39;18.90;1.00
38241;DHT22;24037;49.536;8.500;2023-07-31T06:33:05;19.00;1.00
38241;DHT22;24037;49.536;8.500;2023-07-31T06:35:31;19.30;1.00
38241;DHT22;24037;49.536;8.500;2023-07-31T06:37:57;19.40;1.00
38241;DHT22;24037;49.536;8.500;2023-07-31T06:40:23;19.40;1.00
38241;DHT22;24037;49.536;8.500;2023-07-31T06:42:49;19.40;1.00
38241;DHT22;24037;49.536;8.500;2023-07-31T06:45:15;19.30;1.00
38241;DHT22;24037;49.536;8.500;2023-07-31T06:47:42;19.30;1.00
38241;DHT22;24037;49.536;8.500;2023-07-31T06:50:08;19.30;1.00
38241;DHT22;24037;49.536;8.500;2023-07-31T06:52:34;19.20;1.00
38241;DHT22;24037;49.536;8.500;2023-07-31T06:55:15;19.20;1.00
38241;DHT22;24037;49.536;8.500;2023-07-31T06:57:44;19.20;1.00
38241;DHT22;24037;49.536;8.500;2023-07-31T07:00:11;19.40;1.00
38241;DHT22;24037;49.536;8.500;2023-07-31T07:02:38;19.60;1.00
38241;DHT22;24037;49.536;8.500;2023-07-31T07:05:05;20.00;1.00
38241;DHT22;24037;49.536;8.500;2023-07-31T07:07:32;20.40;1.00
38241;DHT22;24037;49.536;8.500;2023-07-31T07:09:59;20.90;1.00
38241;DHT22;24037;49.536;8.500;2023-07-31T07:12:29;21.20;1.00
38241;DHT22;24037;49.536;8.500;2023-07-31T07:14:56;21.50;1.00
38241;DHT22;24037;49.536;8.500;2023-07-31T07:17:24;21.50;1.00
38241;DHT22;24037;49.536;8.500;2023-07-31T07:19:50;21.60;1.00
38241;DHT22;24037;49.536;8.500;2023-07-31T07:22:17;21.00;1.00
38241;DHT22;24037;49.536;8.500;2023-07-31T07:24:43;20.60;1.00
38241;DHT22;24037;49.536;8.500;2023-07-31T07:27:09;20.40;1.00
38241;DHT22;24037;49.536;8.500;2023-07-31T07:29:35;20.40;1.00
38241;DHT22;24037;49.536;8.500;2023-07-31T07:32:01;20.40;1.00
38241;DHT22;24037;49.536;8.500;2023-07-31T07:34:28;20.50;1.00
38241;DHT22;24037;49.536;8.500;2023-07-31T07:36:55;20.70;1.00
38241;DHT22;24037;49.536;8.500;2023-07-31T07:39:21;20.70;1.00
38241;DHT22;24037;49.536;8.500;2023-07-31T07:41:47;20.80;1.00
38241;DHT22;24037;49.536;8.500;2023-07-31T07:44:14;20.90;1.00
38241;DHT22;24037;49.536;8.500;2023-07-31T07:46:41;21.00;1.00
38241;DHT22;24037;49.536;8.500;2023-07-31T07:49:07;21.60;1.00
38241;DHT22;24037;49.536;8.500;2023-07-31T07:51:33;22.20;1.00
38241;DHT22;24037;49.536;8.500;2023-07-31T07:53:59;22.40;1.00
38241;DHT22;24037;49.536;8.500;2023-07-31T07:56:26;22.70;1.00
38241;DHT22;24037;49.536;8.500;2023-07-31T07:58:53;22.40;1.00
38241;DHT22;24037;49.536;8.500;2023-07-31T08:01:20;22.20;1.00
38241;DHT22;24037;49.536;8.500;2023-07-31T08:03:47;22.70;1.00
38241;DHT22;24037;49.536;8.500;2023-07-31T08:06:14;22.50;1.00
38241;DHT22;24037;49.536;8.500;2023-07-31T08:08:40;22.60;1.00
38241;DHT22;24037;49.536;8.500;2023-07-31T08:11:07;22.50;1.00
38241;DHT22;24037;49.536;8.500;2023-07-31T08:13:33;22.60;1.00
38241;DHT22;24037;49.536;8.500;2023-07-31T08:15:59;22.60;1.00
38241;DHT22;24037;49.536;8.500;2023-07-31T08:18:25;22.20;1.00
38241;DHT22;24037;49.536;8.500;2023-07-31T08:20:51;22.10;1.00
38241;DHT22;24037;49.536;8.500;2023-07-31T08:23:17;22.20;1.00
38241;DHT22;24037;49.536;8.500;2023-07-31T08:25:45;22.80;1.00
38241;DHT22;24037;49.536;8.500;2023-07-31T08:28:12;23.20;1.00
38241;DHT22;24037;49.536;8.500;2023-07-31T08:30:38;22.90;1.00
38241;DHT22;24037;49.536;8.500;2023-07-31T08:33:04;22.90;1.00
38241;DHT22;24037;49.536;8.500;2023-07-31T08:35:30;22.70;1.00
38241;DHT22;24037;49.536;8.500;2023-07-31T08:37:57;23.00;1.00
38241;DHT22;24037;49.536;8.500;2023-07-31T08:40:23;23.40;1.00
38241;DHT22;24037;49.536;8.500;2023-07-31T08:42:52;23.90;1.00
38241;DHT22;24037;49.536;8.500;2023-07-31T08:45:20;24.10;99.90
38241;DHT22;24037;49.536;8.500;2023-07-31T08:47:48;23.90;99.90
38241;DHT22;24037;49.536;8.500;2023-07-31T08:50:16;24.00;99.90
38241;DHT22;24037;49.536;8.500;2023-07-31T08:52:42;23.30;1.00
38241;DHT22;24037;49.536;8.500;2023-07-31T08:55:09;23.00;1.00
38241;DHT22;24037;49.536;8.500;2023-07-31T08:57:38;23.00;1.00
38241;DHT22;24037;49.536;8.500;2023-07-31T09:00:06;22.70;1.00
38241;DHT22;24037;49.536;8.500;2023-07-31T09:02:45;22.40;1.00
38241;DHT22;24037;49.536;8.500;2023-07-31T09:05:12;22.50;1.00
38241;DHT22;24037;49.536;8.500;2023-07-31T09:07:39;22.60;1.00
38241;DHT22;24037;49.536;8.500;2023-07-31T09:10:06;22.50;1.00
38241;DHT22;24037;49.536;8.500;2023-07-31T09:12:33;22.40;1.00
38241;DHT22;24037;49.536;8.500;2023-07-31T09:15:00;22.60;1.00
38241;DHT22;24037;49.536;8.500;2023-07-31T09:17:31;23.30;1.00
38241;DHT22;24037;49.536;8.500;2023-07-31T09:19:58;23.80;1.00
38241;DHT22;24037;49.536;8.500;2023-07-31T09:22:38;23.40;1.00
38241;DHT22;24037;49.536;8.500;2023-07-31T09:25:18;23.00;1.00
38241;DHT22;24037;49.536;8.500;2023-07-31T09:27:53;23.20;1.00
38241;DHT22;24037;49.536;8.500;2023-07-31T09:30:20;23.60;99.90
38241;DHT22;24037;49.536;8.500;2023-07-31T09:32:48;24.00;99.90
38241;DHT22;24037;49.536;8.500;2023-07-31T09:35:30;23.90;99.90
38241;DHT22;24037;49.536;8.500;2023-07-31T09:38:00;23.90;99.90
38241;DHT22;24037;49.536;8.500;2023-07-31T09:40:49;23.40;99.90
38241;DHT22;24037;49.536;8.500;2023-07-31T09:43:20;23.70;99.90
38241;DHT22;24037;49.536;8.500;2023-07-31T09:45:46;23.60;99.90
38241;DHT22;24037;49.536;8.500;2023-07-31T09:48:17;23.30;1.00
38241;DHT22;24037;49.536;8.500;2023-07-31T09:50:45;23.00;1.00
38241;DHT22;24037;49.536;8.500;2023-07-31T09:53:12;22.70;1.00
38241;DHT22;24037;49.536;8.500;2023-07-31T09:55:40;22.70;1.00
38241;DHT22;24037;49.536;8.500;2023-07-31T09:58:09;22.70;1.00
38241;DHT22;24037;49.536;8.500;2023-07-31T10:00:36;22.70;1.00
38241;DHT22;24037;49.536;8.500;2023-07-31T10:03:06;22.60;1.00
38241;DHT22;24037;49.536;8.500;2023-07-31T10:05:40;22.40;1.00
38241;DHT22;24037;49.536;8.500;2023-07-31T10:08:09;22.40;1.00
38241;DHT22;24037;49.536;8.500;2023-07-31T10:10:36;22.60;1.00
38241;DHT22;24037;49.536;8.500;2023-07-31T10:13:04;22.80;1.00
38241;DHT22;24037;49.536;8.500;2023-07-31T10:15:31;22.90;1.00
38241;DHT22;24037;49.536;8.500;2023-07-31T10:17:58;23.00;1.00
38241;DHT22;24037;49.536;8.500;2023-07-31T10:20:26;22.90;1.00
38241;DHT22;24037;49.536;8.500;2023-07-31T10:22:54;22.80;1.00
38241;DHT22;24037;49.536;8.500;2023-07-31T10:25:22;23.00;1.00
38241;DHT22;24037;49.536;8.500;2023-07-31T10:27:49;23.10;1.00
38241;DHT22;24037;49.536;8.500;2023-07-31T10:30:18;23.40;99.90
38241;DHT22;24037;49.536;8.500;2023-07-31T10:32:45;23.50;99.90
38241;DHT22;24037;49.536;8.500;2023-07-31T10:35:12;23.50;99.90
38241;DHT22;24037;49.536;8.500;2023-07-31T10:37:42;23.50;99.90
38241;DHT22;24037;49.536;8.500;2023-07-31T10:40:19;23.50;99.90
38241;DHT22;24037;49.536;8.500;2023-07-31T10:42:54;23.60;99.90
38241;DHT22;24037;49.536;8.500;2023-07-31T10:45:37;23.60;99.90
38241;DHT22;24037;49.536;8.500;2023-07-31T10:48:15;23.60;99.90
38241;DHT22;24037;49.536;8.500;2023-07-31T10:50:52;23.80;99.90
38241;DHT22;24037;49.536;8.500;2023-07-31T10:53:36;23.80;99.90
38241;DHT22;24037;49.536;8.500;2023-07-31T10:56:08;23.70;99.90
38241;DHT22;24037;49.536;8.500;2023-07-31T10:58:36;23.70;99.90
38241;DHT22;24037;49.536;8.500;2023-07-31T11:01:04;23.70;99.90
38241;DHT22;24037;49.536;8.500;2023-07-31T11:03:50;23.80;99.90
38241;DHT22;24037;49.536;8.500;2023-07-31T11:06:18;23.80;99.90
38241;DHT22;24037;49.536;8.500;2023-07-31T11:08:48;23.60;99.90
38241;DHT22;24037;49.536;8.500;2023-07-31T11:11:19;23.60;99.90
38241;DHT22;24037;49.536;8.500;2023-07-31T11:13:47;23.60;99.90
38241;DHT22;24037;49.536;8.500;2023-07-31T11:16:23;23.50;99.90
38241;DHT22;24037;49.536;8.500;2023-07-31T11:18:50;23.50;99.90
38241;DHT22;24037;49.536;8.500;2023-07-31T11:21:24;23.80;99.90
38241;DHT22;24037;49.536;8.500;2023-07-31T11:23:53;23.50;99.90
38241;DHT22;24037;49.536;8.500;2023-07-31T11:26:20;23.40;99.90
38241;DHT22;24037;49.536;8.500;2023-07-31T11:28:49;23.30;99.90
38241;DHT22;24037;49.536;8.500;2023-07-31T11:31:16;23.30;99.90
38241;DHT22;24037;49.536;8.500;2023-07-31T11:33:43;23.50;99.90
38241;DHT22;24037;49.536;8.500;2023-07-31T11:36:17;23.40;99.90
38241;DHT22;24037;49.536;8.500;2023-07-31T11:38:43;23.20;99.90
38241;DHT22;24037;49.536;8.500;2023-07-31T11:41:09;23.00;99.90
38241;DHT22;24037;49.536;8.500;2023-07-31T11:43:35;22.80;99.90
38241;DHT22;24037;49.536;8.500;2023-07-31T11:46:04;22.80;99.90
38241;DHT22;24037;49.536;8.500;2023-07-31T11:48:34;22.90;99.90
38241;DHT22;24037;49.536;8.500;2023-07-31T11:51:07;22.90;99.90
38241;DHT22;24037;49.536;8.500;2023-07-31T11:53:52;22.90;99.90
38241;DHT22;24037;49.536;8.500;2023-07-31T11:56:20;22.90;99.90
38241;DHT22;24037;49.536;8.500;2023-07-31T11:58:49;22.90;99.90
38241;DHT22;24037;49.536;8.500;2023-07-31T12:01:18;22.90;1.00
38241;DHT22;24037;49.536;8.500;2023-07-31T12:03:45;23.00;1.00
38241;DHT22;24037;49.536;8.500;2023-07-31T12:06:11;23.10;99.90
38241;DHT22;24037;49.536;8.500;2023-07-31T12:08:38;23.10;99.90
38241;DHT22;24037;49.536;8.500;2023-07-31T12:11:07;23.20;99.90
38241;DHT22;24037;49.536;8.500;2023-07-31T12:13:35;23.20;99.90
38241;DHT22;24037;49.536;8.500;2023-07-31T12:16:03;23.20;99.90
38241;DHT22;24037;49.536;8.500;2023-07-31T12:18:35;23.20;99.90
38241;DHT22;24037;49.536;8.500;2023-07-31T12:21:04;23.30;99.90
38241;DHT22;24037;49.536;8.500;2023-07-31T12:23:31;23.30;99.90
38241;DHT22;24037;49.536;8.500;2023-07-31T12:26:13;23.30;99.90
38241;DHT22;24037;49.536;8.500;2023-07-31T12:28:44;23.30;99.90
38241;DHT22;24037;49.536;8.500;2023-07-31T12:31:12;23.10;99.90
38241;DHT22;24037;49.536;8.500;2023-07-31T12:33:41;22.90;99.90
38241;DHT22;24037;49.536;8.500;2023-07-31T12:36:09;22.80;99.90
38241;DHT22;24037;49.536;8.500;2023-07-31T12:38:36;22.70;99.90
38241;DHT22;24037;49.536;8.500;2023-07-31T12:41:02;22.60;1.00
38241;DHT22;24037;49.536;8.500;2023-07-31T12:43:28;22.50;1.00
38241;DHT22;24037;49.536;8.500;2023-07-31T12:45:55;22.70;1.00
38241;DHT22;24037;49.536;8.500;2023-07-31T12:48:22;22.70;1.00
38241;DHT22;24037;49.536;8.500;2023-07-31T12:50:48;22.80;99.90
38241;DHT22;24037;49.536;8.500;2023-07-31T12:53:15;23.00;1.00
38241;DHT22;24037;49.536;8.500;2023-07-31T12:55:42;23.20;99.90
38241;DHT22;24037;49.536;8.500;2023-07-31T12:58:08;23.30;99.90
38241;DHT22;24037;49.536;8.500;2023-07-31T13:00:34;23.30;99.90
38241;DHT22;24037;49.536;8.500;2023-07-31T13:03:01;23.50;99.90
38241;DHT22;24037;49.536;8.500;2023-07-31T13:05:28;23.70;99.90
38241;DHT22;24037;49.536;8.500;2023-07-31T13:07:55;24.00;99.90
38241;DHT22;24037;49.536;8.500;2023-07-31T13:10:22;23.90;99.90
38241;DHT22;24037;49.536;8.500;2023-07-31T13:12:49;24.10;99.90
38241;DHT22;24037;49.536;8.500;2023-07-31T13:15:23;24.10;99.90
38241;DHT22;24037;49.536;8.500;2023-07-31T13:17:52;23.90;99.90
38241;DHT22;24037;49.536;8.500;2023-07-31T13:20:18;23.90;99.90
38241;DHT22;24037;49.536;8.500;2023-07-31T13:22:44;23.90;99.90
38241;DHT22;24037;49.536;8.500;2023-07-31T13:25:10;23.70;99.90
38241;DHT22;24037;49.536;8.500;2023-07-31T13:27:37;23.70;99.90
38241;DHT22;24037;49.536;8.500;2023-07-31T13:30:03;23.50;99.90
38241;DHT22;24037;49.536;8.500;2023-07-31T13:32:29;23.50;99.90
38241;DHT22;24037;49.536;8.500;2023-07-31T13:34:55;23.40;99.90
38241;DHT22;24037;49.536;8.500;2023-07-31T13:37:22;23.10;1.00
38241;DHT22;24037;49.536;8.500;2023-07-31T13:39:48;23.10;1.00
38241;DHT22;24037;49.536;8.500;2023-07-31T13:42:14;23.30;1.00
38241;DHT22;24037;49.536;8.500;2023-07-31T13:44:41;23.30;1.00
38241;DHT22;24037;49.536;8.500;2023-07-31T13:47:08;23.40;1.00
38241;DHT22;24037;49.536;8.500;2023-07-31T13:49:35;23.30;1.00
38241;DHT22;24037;49.536;8.500;2023-07-31T13:52:02;23.10;1.00
38241;DHT22;24037;49.536;8.500;2023-07-31T13:54:28;23.10;1.00
38241;DHT22;24037;49.536;8.500;2023-07-31T13:56:54;23.00;1.00
38241;DHT22;24037;49.536;8.500;2023-07-31T13:59:21;23.00;1.00
38241;DHT22;24037;49.536;8.500;2023-07-31T14:01:47;23.00;1.00
38241;DHT22;24037;49.536;8.500;2023-07-31T14:04:14;23.00;1.00
38241;DHT22;24037;49.536;8.500;2023-07-31T14:06:40;23.00;1.00
38241;DHT22;24037;49.536;8.500;2023-07-31T14:09:06;22.90;1.00
38241;DHT22;24037;49.536;8.500;2023-07-31T14:11:32;22.90;1.00
38241;DHT22;24037;49.536;8.500;2023-07-31T14:13:59;23.00;1.00
38241;DHT22;24037;49.536;8.500;2023-07-31T14:16:25;23.00;1.00
38241;DHT22;24037;49.536;8.500;2023-07-31T14:18:51;23.10;1.00
38241;DHT22;24037;49.536;8.500;2023-07-31T14:21:19;23.10;1.00
38241;DHT22;24037;49.536;8.500;2023-07-31T14:23:46;23.00;1.00
38241;DHT22;24037;49.536;8.500;2023-07-31T14:26:12;23.00;1.00
38241;DHT22;24037;49.536;8.500;2023-07-31T14:28:38;23.00;1.00
38241;DHT22;24037;49.536;8.500;2023-07-31T14:31:05;23.20;1.00
38241;DHT22;24037;49.536;8.500;2023-07-31T14:33:31;23.20;1.00
38241;DHT22;24037;49.536;8.500;2023-07-31T14:35:57;23.30;1.00
38241;DHT22;24037;49.536;8.500;2023-07-31T14:38:23;23.50;1.00
38241;DHT22;24037;49.536;8.500;2023-07-31T14:40:51;23.70;1.00
38241;DHT22;24037;49.536;8.500;2023-07-31T14:43:17;23.60;1.00
38241;DHT22;24037;49.536;8.500;2023-07-31T14:45:43;23.70;99.90
38241;DHT22;24037;49.536;8.500;2023-07-31T14:48:09;23.50;1.00
38241;DHT22;24037;49.536;8.500;2023-07-31T14:50:35;23.40;1.00
38241;DHT22;24037;49.536;8.500;2023-07-31T14:53:02;23.30;1.00
38241;DHT22;24037;49.536;8.500;2023-07-31T14:55:28;23.00;1.00
38241;DHT22;24037;49.536;8.500;2023-07-31T14:57:54;22.90;1.00
38241;DHT22;24037;49.536;8.500;2023-07-31T15:00:20;22.90;1.00
38241;DHT22;24037;49.536;8.500;2023-07-31T15:02:47;23.00;1.00
38241;DHT22;24037;49.536;8.500;2023-07-31T15:05:13;23.20;1.00
38241;DHT22;24037;49.536;8.500;2023-07-31T15:07:39;23.30;1.00
38241;DHT22;24037;49.536;8.500;2023-07-31T15:10:06;23.50;1.00
38241;DHT22;24037;49.536;8.500;2023-07-31T15:12:32;23.40;1.00
38241;DHT22;24037;49.536;8.500;2023-07-31T15:14:58;23.30;1.00
38241;DHT22;24037;49.536;8.500;2023-07-31T15:17:24;23.50;1.00
38241;DHT22;24037;49.536;8.500;2023-07-31T15:19:50;23.70;1.00
38241;DHT22;24037;49.536;8.500;2023-07-31T15:22:17;23.60;1.00
38241;DHT22;24037;49.536;8.500;2023-07-31T15:24:43;23.60;1.00
38241;DHT22;24037;49.536;8.500;2023-07-31T15:27:09;23.70;99.90
38241;DHT22;24037;49.536;8.500;2023-07-31T15:29:35;23.60;99.90
38241;DHT22;24037;49.536;8.500;2023-07-31T15:32:06;23.50;99.90
38241;DHT22;24037;49.536;8.500;2023-07-31T15:34:32;23.40;1.00
38241;DHT22;24037;49.536;8.500;2023-07-31T15:36:59;23.30;1.00
38241;DHT22;24037;49.536;8.500;2023-07-31T15:39:25;23.20;1.00
38241;DHT22;24037;49.536;8.500;2023-07-31T15:41:51;23.30;1.00
38241;DHT22;24037;49.536;8.500;2023-07-31T15:44:17;23.40;1.00